sensor_id;sensor_type;location;lat;lon;timestamp;pressure;altitude;pressure_sealevel;temperature;humidity
46007;BME280;31738;50.188;8.524;2023-01-27T00:00:18;99183.38;;;2.41;93.01
46007;BME280;31738;50.188;8.524;2023-01-27T00:02:44;99186.63;;;2.43;93.11
46007;BME280;31738;50.188;8.524;2023-01-27T00:05:11;99176.88;;;2.43;92.94
46007;BME280;31738;50.188;8.524;2023-01-27T00:07:38;99179.31;;;2.45;93.33
46007;BME280;31738;50.188;8.524;2023-01-27T00:10:04;99180.72;;;2.47;93.14
46007;BME280;31738;50.188;8.524;2023-01-27T00:12:47;99185.63;;;2.44;93.06
46007;BME280;31738;50.188;8.524;2023-01-27T00:15:32;99181.75;;;2.40;93.62
46007;BME280;31738;50.188;8.524;2023-01-27T00:17:59;99185.44;;;2.39;93.58
46007;BME280;31738;50.188;8.524;2023-01-27T00:20:25;99176.47;;;2.40;93.92
46007;BME280;31738;50.188;8.524;2023-01-27T00:23:17;99173.81;;;2.40;93.75
46007;BME280;31738;50.188;8.524;2023-01-27T00:26:04;99176.47;;;2.40;93.99
46007;BME280;31738;50.188;8.524;2023-01-27T00:28:34;99158.97;;;2.39;93.95
46007;BME280;31738;50.188;8.524;2023-01-27T00:31:00;99154.88;;;2.43;93.77
46007;BME280;31738;50.188;8.524;2023-01-27T00:33:27;99151.59;;;2.47;93.53
46007;BME280;31738;50.188;8.524;2023-01-27T00:36:05;99156.69;;;2.49;93.41
46007;BME280;31738;50.188;8.524;2023-01-27T00:38:34;99158.91;;;2.52;93.98
46007;BME280;31738;50.188;8.524;2023-01-27T00:41:05;99165.84;;;2.53;94.13
46007;BME280;31738;50.188;8.524;2023-01-27T00:43:48;99163.19;;;2.53;93.74
46007;BME280;31738;50.188;8.524;2023-01-27T00:46:15;99155.84;;;2.55;93.72
46007;BME280;31738;50.188;8.524;2023-01-27T00:48:41;99156.66;;;2.55;94.03
46007;BME280;31738;50.188;8.524;2023-01-27T00:51:07;99149.97;;;2.53;94.53
46007;BME280;31738;50.188;8.524;2023-01-27T00:53:35;99148.72;;;2.55;94.60
46007;BME280;31738;50.188;8.524;2023-01-27T00:56:04;99139.72;;;2.56;94.28
46007;BME280;31738;50.188;8.524;2023-01-27T00:58:30;99148.28;;;2.58;94.07
46007;BME280;31738;50.188;8.524;2023-01-27T01:00:57;99138.13;;;2.55;95.01
46007;BME280;31738;50.188;8.524;2023-01-27T01:03:27;99145.44;;;2.60;94.66
46007;BME280;31738;50.188;8.524;2023-01-27T01:05:57;99149.69;;;2.61;94.61
46007;BME280;31738;50.188;8.524;2023-01-27T01:08:23;99148.69;;;2.62;94.49
46007;BME280;31738;50.188;8.524;2023-01-27T01:10:48;99155.59;;;2.63;94.39
46007;BME280;31738;50.188;8.524;2023-01-27T01:13:14;99153.97;;;2.62;94.70
46007;BME280;31738;50.188;8.524;2023-01-27T01:15:42;99154.56;;;2.64;94.48
46007;BME280;31738;50.188;8.524;2023-01-27T01:18:09;99162.94;;;2.61;94.75
46007;BME280;31738;50.188;8.524;2023-01-27T01:20:40;99168.63;;;2.64;94.83
46007;BME280;31738;50.188;8.524;2023-01-27T01:23:07;99164.16;;;2.65;94.67
46007;BME280;31738;50.188;8.524;2023-01-27T01:25:33;99162.28;;;2.65;94.88
46007;BME280;31738;50.188;8.524;2023-01-27T01:28:12;99165.00;;;2.59;94.83
46007;BME280;31738;50.188;8.524;2023-01-27T01:30:37;99172.50;;;2.62;95.25
46007;BME280;31738;50.188;8.524;2023-01-27T01:33:04;99180.25;;;2.63;94.75
46007;BME280;31738;50.188;8.524;2023-01-27T01:35:30;99169.44;;;2.65;94.53
46007;BME280;31738;50.188;8.524;2023-01-27T01:37:57;99168.44;;;2.59;95.02
46007;BME280;31738;50.188;8.524;2023-01-27T01:40:22;99169.44;;;2.65;95.33
46007;BME280;31738;50.188;8.524;2023-01-27T01:48:20;99162.34;;;2.59;95.17
46007;BME280;31738;50.188;8.524;2023-01-27T01:50:58;99158.25;;;2.63;95.30
46007;BME280;31738;50.188;8.524;2023-01-27T01:53:33;99160.88;;;2.63;95.34
46007;BME280;31738;50.188;8.524;2023-01-27T01:56:09;99162.06;;;2.67;94.91
46007;BME280;31738;50.188;8.524;2023-01-27T01:58:40;99157.22;;;2.64;94.86
46007;BME280;31738;50.188;8.524;2023-01-27T02:01:07;99162.06;;;2.67;95.08
46007;BME280;31738;50.188;8.524;2023-01-27T02:03:34;99158.44;;;2.68;94.88
46007;BME280;31738;50.188;8.524;2023-01-27T02:06:04;99159.63;;;2.65;95.00
46007;BME280;31738;50.188;8.524;2023-01-27T02:08:35;99157.22;;;2.64;95.03
46007;BME280;31738;50.188;8.524;2023-01-27T02:11:02;99164.16;;;2.65;94.92
46007;BME280;31738;50.188;8.524;2023-01-27T02:13:27;99157.38;;;2.69;95.15
46007;BME280;31738;50.188;8.524;2023-01-27T02:15:53;99158.84;;;2.65;95.28
46007;BME280;31738;50.188;8.524;2023-01-27T02:18:20;99171.06;;;2.59;95.13
46007;BME280;31738;50.188;8.524;2023-01-27T02:20:49;99157.22;;;2.64;95.05
46007;BME280;31738;50.188;8.524;2023-01-27T02:28:55;99160.88;;;2.63;94.81
46007;BME280;31738;50.188;8.524;2023-01-27T02:31:21;99161.28;;;2.66;94.84
46007;BME280;31738;50.188;8.524;2023-01-27T02:33:48;99157.59;;;2.67;94.79
46007;BME280;31738;50.188;8.524;2023-01-27T02:36:49;99155.59;;;2.63;95.19
46007;BME280;31738;50.188;8.524;2023-01-27T02:39:17;99156.19;;;2.65;94.92
46007;BME280;31738;50.188;8.524;2023-01-27T02:41:51;99159.06;;;2.63;94.92
46007;BME280;31738;50.188;8.524;2023-01-27T02:44:21;99158.66;;;2.60;95.40
46007;BME280;31738;50.188;8.524;2023-01-27T02:46:47;99160.88;;;2.63;95.24
46007;BME280;31738;50.188;8.524;2023-01-27T02:49:13;99164.16;;;2.65;95.15
46007;BME280;31738;50.188;8.524;2023-01-27T02:51:39;99156.78;;;2.67;95.27
46007;BME280;31738;50.188;8.524;2023-01-27T02:54:06;99163.72;;;2.68;95.35
46007;BME280;31738;50.188;8.524;2023-01-27T02:56:32;99164.50;;;2.68;94.97
46007;BME280;31738;50.188;8.524;2023-01-27T02:58:57;99169.00;;;2.68;95.41
46007;BME280;31738;50.188;8.524;2023-01-27T03:01:32;99171.91;;;2.60;95.43
46007;BME280;31738;50.188;8.524;2023-01-27T03:03:58;99171.91;;;2.60;95.67
46007;BME280;31738;50.188;8.524;2023-01-27T03:06:24;99168.81;;;2.63;95.38
46007;BME280;31738;50.188;8.524;2023-01-27T03:08:49;99165.75;;;2.66;95.22
46007;BME280;31738;50.188;8.524;2023-01-27T03:11:15;99174.31;;;2.68;95.14
46007;BME280;31738;50.188;8.524;2023-01-27T03:14:02;99181.66;;;2.66;95.29
46007;BME280;31738;50.188;8.524;2023-01-27T03:16:27;99175.53;;;2.65;95.34
46007;BME280;31738;50.188;8.524;2023-01-27T03:19:12;99188.56;;;2.67;95.13
46007;BME280;31738;50.188;8.524;2023-01-27T03:21:42;99188.56;;;2.67;95.25
46007;BME280;31738;50.188;8.524;2023-01-27T03:25:07;99185.97;;;2.60;94.81
46007;BME280;31738;50.188;8.524;2023-01-27T03:27:36;99186.16;;;2.59;95.50
46007;BME280;31738;50.188;8.524;2023-01-27T03:30:23;99180.47;;;2.62;95.05
46007;BME280;31738;50.188;8.524;2023-01-27T03:33:04;99187.97;;;2.65;94.89
46007;BME280;31738;50.188;8.524;2023-01-27T03:35:55;99188.97;;;2.64;95.28
46007;BME280;31738;50.188;8.524;2023-01-27T03:38:49;99190.00;;;2.63;94.86
46007;BME280;31738;50.188;8.524;2023-01-27T03:41:33;99193.09;;;2.60;95.08
46007;BME280;31738;50.188;8.524;2023-01-27T03:44:17;99191.03;;;2.62;95.04
46007;BME280;31738;50.188;8.524;2023-01-27T03:47:01;99188.81;;;2.59;95.10
46007;BME280;31738;50.188;8.524;2023-01-27T03:49:27;99195.09;;;2.64;95.01
46007;BME280;31738;50.188;8.524;2023-01-27T03:51:52;99185.13;;;2.66;94.92
46007;BME280;31738;50.188;8.524;2023-01-27T03:54:18;99176.34;;;2.66;95.09
46007;BME280;31738;50.188;8.524;2023-01-27T03:56:44;99184.91;;;2.68;94.91
46007;BME280;31738;50.188;8.524;2023-01-27T03:59:10;99190.00;;;2.69;94.96
46007;BME280;31738;50.188;8.524;2023-01-27T04:01:36;99189.78;;;2.71;94.98
46007;BME280;31738;50.188;8.524;2023-01-27T04:04:01;99189.78;;;2.71;94.90
46007;BME280;31738;50.188;8.524;2023-01-27T04:06:45;99186.94;;;2.66;94.71
46007;BME280;31738;50.188;8.524;2023-01-27T04:11:56;99196.50;;;2.67;94.85
46007;BME280;31738;50.188;8.524;2023-01-27T04:17:04;99199.16;;;2.67;94.97
46007;BME280;31738;50.188;8.524;2023-01-27T04:19:30;99195.50;;;2.68;95.05
46007;BME280;31738;50.188;8.524;2023-01-27T04:21:57;99195.91;;;2.65;95.21
46007;BME280;31738;50.188;8.524;2023-01-27T04:24:23;99198.16;;;2.68;95.39
46007;BME280;31738;50.188;8.524;2023-01-27T04:26:57;99201.78;;;2.67;94.56
46007;BME280;31738;50.188;8.524;2023-01-27T04:29:29;99188.94;;;2.70;95.13
46007;BME280;31738;50.188;8.524;2023-01-27T04:31:55;99198.31;;;2.73;94.90
46007;BME280;31738;50.188;8.524;2023-01-27T04:34:25;99190.97;;;2.75;94.83
46007;BME280;31738;50.188;8.524;2023-01-27T04:36:55;99200.78;;;2.68;95.10
46007;BME280;31738;50.188;8.524;2023-01-27T04:39:21;99189.78;;;2.71;94.77
46007;BME280;31738;50.188;8.524;2023-01-27T04:41:52;99201.19;;;2.71;95.08
46007;BME280;31738;50.188;8.524;2023-01-27T04:44:19;99205.66;;;2.71;94.90
46007;BME280;31738;50.188;8.524;2023-01-27T04:46:50;99203.63;;;2.73;94.74
46007;BME280;31738;50.188;8.524;2023-01-27T04:49:17;99197.28;;;2.74;95.00
46007;BME280;31738;50.188;8.524;2023-01-27T04:51:43;99208.50;;;2.76;94.50
46007;BME280;31738;50.188;8.524;2023-01-27T04:54:19;99210.94;;;2.77;94.69
46007;BME280;31738;50.188;8.524;2023-01-27T04:59:38;99215.66;;;2.69;94.94
46007;BME280;31738;50.188;8.524;2023-01-27T05:02:10;99209.31;;;2.70;95.12
46007;BME280;31738;50.188;8.524;2023-01-27T05:08:13;99216.28;;;2.64;95.20
46007;BME280;31738;50.188;8.524;2023-01-27T05:10:42;99216.69;;;2.68;94.77
46007;BME280;31738;50.188;8.524;2023-01-27T05:13:10;99211.97;;;2.70;94.94
46007;BME280;31738;50.188;8.524;2023-01-27T05:15:46;99223.16;;;2.72;94.65
46007;BME280;31738;50.188;8.524;2023-01-27T05:18:19;99217.88;;;2.72;95.17
46007;BME280;31738;50.188;8.524;2023-01-27T05:20:44;99212.38;;;2.73;94.96
46007;BME280;31738;50.188;8.524;2023-01-27T05:23:14;99218.06;;;2.77;94.56
46007;BME280;31738;50.188;8.524;2023-01-27T05:26:10;99216.88;;;2.73;94.68
46007;BME280;31738;50.188;8.524;2023-01-27T05:28:46;99226.84;;;2.71;94.89
46007;BME280;31738;50.188;8.524;2023-01-27T05:31:28;99230.50;;;2.70;95.21
46007;BME280;31738;50.188;8.524;2023-01-27T05:33:58;99231.31;;;2.70;95.00
46007;BME280;31738;50.188;8.524;2023-01-27T05:36:33;99222.75;;;2.75;94.39
46007;BME280;31738;50.188;8.524;2023-01-27T05:38:59;99228.47;;;2.72;94.49
46007;BME280;31738;50.188;8.524;2023-01-27T05:41:25;99228.25;;;2.73;94.96
46007;BME280;31738;50.188;8.524;2023-01-27T05:43:54;99229.69;;;2.76;94.97
46007;BME280;31738;50.188;8.524;2023-01-27T05:46:25;99239.25;;;2.77;94.67
46007;BME280;31738;50.188;8.524;2023-01-27T05:48:57;99233.53;;;2.80;94.77
46007;BME280;31738;50.188;8.524;2023-01-27T05:51:28;99238.81;;;2.80;94.54
46007;BME280;31738;50.188;8.524;2023-01-27T05:53:54;99236.16;;;2.80;94.94
46007;BME280;31738;50.188;8.524;2023-01-27T05:56:21;99237.00;;;2.80;94.72
46007;BME280;31738;50.188;8.524;2023-01-27T05:58:48;99239.84;;;2.79;95.20
46007;BME280;31738;50.188;8.524;2023-01-27T06:01:22;99236.38;;;2.78;94.72
46007;BME280;31738;50.188;8.524;2023-01-27T06:03:48;99240.69;;;2.73;95.27
46007;BME280;31738;50.188;8.524;2023-01-27T06:06:27;99238.81;;;2.80;94.74
46007;BME280;31738;50.188;8.524;2023-01-27T06:08:53;99244.72;;;2.82;94.76
46007;BME280;31738;50.188;8.524;2023-01-27T06:11:23;99237.38;;;2.84;94.61
46007;BME280;31738;50.188;8.524;2023-01-27T06:13:58;99239.44;;;2.82;94.72
46007;BME280;31738;50.188;8.524;2023-01-27T06:16:24;99241.03;;;2.83;95.09
46007;BME280;31738;50.188;8.524;2023-01-27T06:19:03;99254.50;;;2.81;94.88
46007;BME280;31738;50.188;8.524;2023-01-27T06:21:29;99252.69;;;2.82;95.21
46007;BME280;31738;50.188;8.524;2023-01-27T06:23:54;99257.75;;;2.83;94.80
46007;BME280;31738;50.188;8.524;2023-01-27T06:26:31;99260.19;;;2.85;95.40
46007;BME280;31738;50.188;8.524;2023-01-27T06:28:57;99258.34;;;2.85;94.95
46007;BME280;31738;50.188;8.524;2023-01-27T06:31:26;99259.97;;;2.86;95.03
46007;BME280;31738;50.188;8.524;2023-01-27T06:33:52;99264.47;;;2.86;94.99
46007;BME280;31738;50.188;8.524;2023-01-27T06:36:23;99265.06;;;2.88;94.86
46007;BME280;31738;50.188;8.524;2023-01-27T06:38:49;99259.34;;;2.91;94.69
46007;BME280;31738;50.188;8.524;2023-01-27T06:41:15;99270.38;;;2.88;94.70
46007;BME280;31738;50.188;8.524;2023-01-27T06:43:41;99274.22;;;2.92;94.78
46007;BME280;31738;50.188;8.524;2023-01-27T06:46:07;99272.59;;;2.91;95.21
46007;BME280;31738;50.188;8.524;2023-01-27T06:48:42;99268.91;;;2.92;94.90
46007;BME280;31738;50.188;8.524;2023-01-27T06:51:08;99272.81;;;2.89;94.88
46007;BME280;31738;50.188;8.524;2023-01-27T06:53:36;99284.19;;;2.90;94.79
46007;BME280;31738;50.188;8.524;2023-01-27T06:56:03;99283.78;;;2.93;95.17
46007;BME280;31738;50.188;8.524;2023-01-27T06:58:31;99276.88;;;2.85;95.70
46007;BME280;31738;50.188;8.524;2023-01-27T07:00:59;99275.63;;;2.94;95.30
46007;BME280;31738;50.188;8.524;2023-01-27T07:03:25;99271.13;;;2.95;94.91
46007;BME280;31738;50.188;8.524;2023-01-27T07:05:51;99284.38;;;2.95;94.85
46007;BME280;31738;50.188;8.524;2023-01-27T07:08:17;99284.19;;;2.96;94.76
46007;BME280;31738;50.188;8.524;2023-01-27T07:10:48;99286.63;;;2.98;94.95
46007;BME280;31738;50.188;8.524;2023-01-27T07:13:14;99287.03;;;2.95;95.16
46007;BME280;31738;50.188;8.524;2023-01-27T07:15:42;99288.47;;;2.97;94.90
46007;BME280;31738;50.188;8.524;2023-01-27T07:18:11;99282.97;;;2.99;94.88
46007;BME280;31738;50.188;8.524;2023-01-27T07:20:55;99287.66;;;2.97;95.00
46007;BME280;31738;50.188;8.524;2023-01-27T07:23:23;99294.78;;;2.96;94.88
46007;BME280;31738;50.188;8.524;2023-01-27T07:25:49;99291.91;;;2.98;95.04
46007;BME280;31738;50.188;8.524;2023-01-27T07:28:20;99286.19;;;3.01;95.01
46007;BME280;31738;50.188;8.524;2023-01-27T07:31:29;99294.78;;;2.96;94.50
46007;BME280;31738;50.188;8.524;2023-01-27T07:33:58;99299.66;;;2.99;95.11
46007;BME280;31738;50.188;8.524;2023-01-27T07:36:23;99304.53;;;2.96;94.96
46007;BME280;31738;50.188;8.524;2023-01-27T07:38:49;99296.78;;;3.01;94.84
46007;BME280;31738;50.188;8.524;2023-01-27T07:41:18;99300.03;;;3.03;94.75
46007;BME280;31738;50.188;8.524;2023-01-27T07:43:52;99301.66;;;3.04;95.24
46007;BME280;31738;50.188;8.524;2023-01-27T07:46:18;99306.97;;;3.04;95.18
46007;BME280;31738;50.188;8.524;2023-01-27T07:48:47;99314.50;;;3.07;95.14
46007;BME280;31738;50.188;8.524;2023-01-27T07:51:20;99309.41;;;3.05;94.90
46007;BME280;31738;50.188;8.524;2023-01-27T07:53:49;99320.81;;;3.06;95.14
46007;BME280;31738;50.188;8.524;2023-01-27T07:56:16;99313.47;;;3.08;94.66
46007;BME280;31738;50.188;8.524;2023-01-27T07:58:42;99311.84;;;3.07;94.93
46007;BME280;31738;50.188;8.524;2023-01-27T08:01:16;99311.41;;;3.10;94.41
46007;BME280;31738;50.188;8.524;2023-01-27T08:03:42;99321.59;;;3.13;94.61
46007;BME280;31738;50.188;8.524;2023-01-27T08:06:11;99323.25;;;3.14;94.59
46007;BME280;31738;50.188;8.524;2023-01-27T08:08:37;99321.81;;;3.11;94.68
46007;BME280;31738;50.188;8.524;2023-01-27T08:11:05;99332.19;;;3.13;94.94
46007;BME280;31738;50.188;8.524;2023-01-27T08:13:34;99324.03;;;3.14;94.58
46007;BME280;31738;50.188;8.524;2023-01-27T08:16:02;99327.09;;;3.18;94.44
46007;BME280;31738;50.188;8.524;2023-01-27T08:18:30;99330.34;;;3.20;94.79
46007;BME280;31738;50.188;8.524;2023-01-27T08:21:02;99336.84;;;3.17;94.53
46007;BME280;31738;50.188;8.524;2023-01-27T08:23:29;99331.13;;;3.20;94.26
46007;BME280;31738;50.188;8.524;2023-01-27T08:25:57;99341.53;;;3.22;94.48
46007;BME280;31738;50.188;8.524;2023-01-27T08:28:41;99338.72;;;3.17;94.51
46007;BME280;31738;50.188;8.524;2023-01-27T08:31:10;99341.94;;;3.19;94.27
46007;BME280;31738;50.188;8.524;2023-01-27T08:33:36;99347.03;;;3.20;94.34
46007;BME280;31738;50.188;8.524;2023-01-27T08:36:07;99342.78;;;3.19;95.01
46007;BME280;31738;50.188;8.524;2023-01-27T08:41:29;99353.44;;;3.06;94.94
46007;BME280;31738;50.188;8.524;2023-01-27T08:43:57;99347.31;;;3.06;94.37
46007;BME280;31738;50.188;8.524;2023-01-27T08:46:23;99353.59;;;3.11;94.60
46007;BME280;31738;50.188;8.524;2023-01-27T08:53:10;99360.75;;;3.11;94.41
46007;BME280;31738;50.188;8.524;2023-01-27T08:55:36;99356.66;;;3.15;94.56
46007;BME280;31738;50.188;8.524;2023-01-27T08:58:04;99362.56;;;3.17;94.90
46007;BME280;31738;50.188;8.524;2023-01-27T09:00:33;99361.94;;;3.15;94.88
46007;BME280;31738;50.188;8.524;2023-01-27T09:02:58;99371.28;;;3.24;94.72
46007;BME280;31738;50.188;8.524;2023-01-27T09:05:24;99376.16;;;3.27;94.72
46007;BME280;31738;50.188;8.524;2023-01-27T09:07:49;99380.47;;;3.28;94.69
46007;BME280;31738;50.188;8.524;2023-01-27T09:10:15;99389.63;;;3.32;94.91
46007;BME280;31738;50.188;8.524;2023-01-27T09:12:54;99388.38;;;3.34;94.51
46007;BME280;31738;50.188;8.524;2023-01-27T09:15:27;99390.44;;;3.32;94.19
46007;BME280;31738;50.188;8.524;2023-01-27T09:17:52;99401.41;;;3.36;94.75
46007;BME280;31738;50.188;8.524;2023-01-27T09:20:28;99398.94;;;3.41;94.12
46007;BME280;31738;50.188;8.524;2023-01-27T09:22:57;99399.38;;;3.38;94.93
46007;BME280;31738;50.188;8.524;2023-01-27T09:25:26;99404.88;;;3.36;94.85
46007;BME280;31738;50.188;8.524;2023-01-27T09:27:55;99404.25;;;3.41;94.17
46007;BME280;31738;50.188;8.524;2023-01-27T09:30:22;99402.22;;;3.43;94.10
46007;BME280;31738;50.188;8.524;2023-01-27T09:32:48;99401.00;;;3.39;94.59
46007;BME280;31738;50.188;8.524;2023-01-27T09:35:14;99403.44;;;3.40;94.75
46007;BME280;31738;50.188;8.524;2023-01-27T09:37:50;99405.84;;;3.48;94.33
46007;BME280;31738;50.188;8.524;2023-01-27T09:40:56;99403.81;;;3.44;93.68
46007;BME280;31738;50.188;8.524;2023-01-27T09:43:49;99399.56;;;3.43;94.54
46007;BME280;31738;50.188;8.524;2023-01-27T09:52:10;99407.31;;;3.44;93.85
46007;BME280;31738;50.188;8.524;2023-01-27T09:54:51;99403.81;;;3.44;93.75
46007;BME280;31738;50.188;8.524;2023-01-27T09:57:33;99411.34;;;3.47;93.66
46007;BME280;31738;50.188;8.524;2023-01-27T10:03:16;99397.69;;;3.43;94.03
46007;BME280;31738;50.188;8.524;2023-01-27T10:06:08;99399.34;;;3.44;93.30
46007;BME280;31738;50.188;8.524;2023-01-27T10:08:59;99397.69;;;3.50;93.54
46007;BME280;31738;50.188;8.524;2023-01-27T10:27:35;99408.03;;;3.65;93.10
46007;BME280;31738;50.188;8.524;2023-01-27T10:30:11;99408.19;;;3.70;93.21
46007;BME280;31738;50.188;8.524;2023-01-27T10:35:31;99420.38;;;3.77;93.39
46007;BME280;31738;50.188;8.524;2023-01-27T10:43:22;99417.06;;;3.88;92.74
46007;BME280;31738;50.188;8.524;2023-01-27T10:48:26;99421.94;;;3.91;92.32
46007;BME280;31738;50.188;8.524;2023-01-27T10:53:54;99435.34;;;4.03;92.20
46007;BME280;31738;50.188;8.524;2023-01-27T10:56:28;99423.09;;;4.02;92.27
46007;BME280;31738;50.188;8.524;2023-01-27T11:01:39;99432.38;;;4.17;91.68
46007;BME280;31738;50.188;8.524;2023-01-27T11:04:16;99437.66;;;4.24;90.94
46007;BME280;31738;50.188;8.524;2023-01-27T11:06:47;99441.69;;;4.26;91.31
46007;BME280;31738;50.188;8.524;2023-01-27T11:09:27;99442.91;;;4.30;90.97
46007;BME280;31738;50.188;8.524;2023-01-27T11:11:55;99440.84;;;4.32;91.23
46007;BME280;31738;50.188;8.524;2023-01-27T11:14:45;99436.47;;;4.44;90.51
46007;BME280;31738;50.188;8.524;2023-01-27T11:17:36;99432.94;;;4.50;90.28
46007;BME280;31738;50.188;8.524;2023-01-27T11:20:23;99442.38;;;4.46;89.08
46007;BME280;31738;50.188;8.524;2023-01-27T11:22:59;99448.09;;;4.43;89.74
46007;BME280;31738;50.188;8.524;2023-01-27T11:25:52;99440.16;;;4.43;89.69
46007;BME280;31738;50.188;8.524;2023-01-27T11:31:29;99438.31;;;4.44;90.30
46007;BME280;31738;50.188;8.524;2023-01-27T11:34:10;99444.00;;;4.47;89.65
46007;BME280;31738;50.188;8.524;2023-01-27T11:36:40;99433.75;;;4.51;89.35
46007;BME280;31738;50.188;8.524;2023-01-27T11:39:07;99447.63;;;4.53;89.24
46007;BME280;31738;50.188;8.524;2023-01-27T11:41:37;99438.84;;;4.52;89.25
46007;BME280;31738;50.188;8.524;2023-01-27T11:44:07;99444.31;;;4.57;89.25
46007;BME280;31738;50.188;8.524;2023-01-27T11:46:36;99447.59;;;4.59;89.24
46007;BME280;31738;50.188;8.524;2023-01-27T11:49:02;99450.25;;;4.59;89.43
46007;BME280;31738;50.188;8.524;2023-01-27T11:51:36;99451.69;;;4.55;87.88
46007;BME280;31738;50.188;8.524;2023-01-27T11:54:24;99449.31;;;4.47;88.71
46007;BME280;31738;50.188;8.524;2023-01-27T11:56:52;99451.97;;;4.47;89.69
46007;BME280;31738;50.188;8.524;2023-01-27T11:59:24;99447.69;;;4.46;88.81
46007;BME280;31738;50.188;8.524;2023-01-27T12:01:58;99439.19;;;4.38;88.71
46007;BME280;31738;50.188;8.524;2023-01-27T12:04:41;99438.34;;;4.37;89.47
46007;BME280;31738;50.188;8.524;2023-01-27T12:07:18;99435.13;;;4.35;89.56
46007;BME280;31738;50.188;8.524;2023-01-27T12:09:47;99435.13;;;4.35;89.68
46007;BME280;31738;50.188;8.524;2023-01-27T12:14:59;99433.03;;;4.37;89.23
46007;BME280;31738;50.188;8.524;2023-01-27T12:17:38;99434.34;;;4.28;88.75
46007;BME280;31738;50.188;8.524;2023-01-27T12:22:46;99419.75;;;4.37;89.56
46007;BME280;31738;50.188;8.524;2023-01-27T12:25:19;99435.03;;;4.42;89.35
46007;BME280;31738;50.188;8.524;2023-01-27T12:27:50;99422.59;;;4.42;88.85
46007;BME280;31738;50.188;8.524;2023-01-27T12:30:20;99427.09;;;4.42;88.46
46007;BME280;31738;50.188;8.524;2023-01-27T12:32:47;99417.50;;;4.41;88.74
46007;BME280;31738;50.188;8.524;2023-01-27T12:35:36;99416.47;;;4.42;88.36
46007;BME280;31738;50.188;8.524;2023-01-27T12:38:15;99413.00;;;4.41;88.39
46007;BME280;31738;50.188;8.524;2023-01-27T12:40:43;99406.66;;;4.42;88.49
46007;BME280;31738;50.188;8.524;2023-01-27T12:43:12;99409.69;;;4.46;88.94
46007;BME280;31738;50.188;8.524;2023-01-27T12:45:38;99421.94;;;4.47;88.47
46007;BME280;31738;50.188;8.524;2023-01-27T12:50:35;99407.13;;;4.57;88.04
46007;BME280;31738;50.188;8.524;2023-01-27T12:55:36;99419.94;;;4.67;87.94
46007;BME280;31738;50.188;8.524;2023-01-27T12:58:03;99422.38;;;4.68;87.98
46007;BME280;31738;50.188;8.524;2023-01-27T13:00:29;99418.88;;;4.68;87.24
46007;BME280;31738;50.188;8.524;2023-01-27T13:03:05;99431.81;;;4.64;87.38
46007;BME280;31738;50.188;8.524;2023-01-27T13:05:41;99429.94;;;4.65;87.64
46007;BME280;31738;50.188;8.524;2023-01-27T13:08:15;99439.00;;;4.57;86.89
46007;BME280;31738;50.188;8.524;2023-01-27T13:10:53;99431.66;;;4.59;87.07
46007;BME280;31738;50.188;8.524;2023-01-27T13:13:24;99443.88;;;4.60;87.28
46007;BME280;31738;50.188;8.524;2023-01-27T13:18:40;99439.22;;;4.56;87.85
46007;BME280;31738;50.188;8.524;2023-01-27T13:21:15;99435.31;;;4.58;87.98
46007;BME280;31738;50.188;8.524;2023-01-27T13:23:41;99446.66;;;4.47;87.51
46007;BME280;31738;50.188;8.524;2023-01-27T13:28:52;99455.22;;;4.49;87.37
46007;BME280;31738;50.188;8.524;2023-01-27T13:37:24;99456.25;;;4.48;87.66
46007;BME280;31738;50.188;8.524;2023-01-27T13:40:09;99450.13;;;4.48;87.80
46007;BME280;31738;50.188;8.524;2023-01-27T13:42:45;99454.63;;;4.47;87.59
46007;BME280;31738;50.188;8.524;2023-01-27T13:45:16;99457.81;;;4.31;88.50
46007;BME280;31738;50.188;8.524;2023-01-27T13:48:04;99452.72;;;4.30;88.54
46007;BME280;31738;50.188;8.524;2023-01-27T13:50:38;99453.94;;;4.34;88.00
46007;BME280;31738;50.188;8.524;2023-01-27T13:53:09;99457.56;;;4.39;88.31
46007;BME280;31738;50.188;8.524;2023-01-27T13:58:31;99456.91;;;4.44;88.72
46007;BME280;31738;50.188;8.524;2023-01-27T14:06:42;99447.09;;;4.44;88.40
46007;BME280;31738;50.188;8.524;2023-01-27T14:09:22;99457.50;;;4.46;88.11
46007;BME280;31738;50.188;8.524;2023-01-27T14:12:03;99461.78;;;4.47;88.04
46007;BME280;31738;50.188;8.524;2023-01-27T14:17:39;99465.69;;;4.44;87.93
46007;BME280;31738;50.188;8.524;2023-01-27T14:20:32;99464.03;;;4.43;88.07
46007;BME280;31738;50.188;8.524;2023-01-27T14:28:20;99463.81;;;4.45;88.10
46007;BME280;31738;50.188;8.524;2023-01-27T14:31:03;99468.13;;;4.46;88.66
46007;BME280;31738;50.188;8.524;2023-01-27T14:38:48;99473.06;;;4.42;88.32
46007;BME280;31738;50.188;8.524;2023-01-27T14:41:30;99479.97;;;4.43;88.31
46007;BME280;31738;50.188;8.524;2023-01-27T14:44:16;99492.81;;;4.46;87.83
46007;BME280;31738;50.188;8.524;2023-01-27T14:47:02;99495.47;;;4.46;88.46
46007;BME280;31738;50.188;8.524;2023-01-27T14:55:27;99497.56;;;4.44;87.90
46007;BME280;31738;50.188;8.524;2023-01-27T15:03:28;99501.63;;;4.47;88.12
46007;BME280;31738;50.188;8.524;2023-01-27T15:16:52;99517.94;;;4.50;87.55
46007;BME280;31738;50.188;8.524;2023-01-27T15:20:00;99510.41;;;4.47;87.89
46007;BME280;31738;50.188;8.524;2023-01-27T15:25:32;99513.50;;;4.44;87.52
46007;BME280;31738;50.188;8.524;2023-01-27T15:28:01;99519.59;;;4.45;88.05
46007;BME280;31738;50.188;8.524;2023-01-27T15:30:33;99530.63;;;4.48;87.53
46007;BME280;31738;50.188;8.524;2023-01-27T15:32:59;99517.56;;;4.47;87.57
46007;BME280;31738;50.188;8.524;2023-01-27T15:36:03;99529.03;;;4.41;86.86
46007;BME280;31738;50.188;8.524;2023-01-27T15:42:20;99531.91;;;4.39;87.36
46007;BME280;31738;50.188;8.524;2023-01-27T15:44:58;99531.47;;;4.42;87.58
46007;BME280;31738;50.188;8.524;2023-01-27T15:47:33;99526.16;;;4.42;87.37
46007;BME280;31738;50.188;8.524;2023-01-27T15:50:17;99531.25;;;4.44;87.87
46007;BME280;31738;50.188;8.524;2023-01-27T15:52:46;99523.28;;;4.44;87.49
46007;BME280;31738;50.188;8.524;2023-01-27T15:55:25;99529.44;;;4.44;87.81
46007;BME280;31738;50.188;8.524;2023-01-27T15:58:04;99524.13;;;4.44;87.55
46007;BME280;31738;50.188;8.524;2023-01-27T16:03:47;99534.78;;;4.38;87.53
46007;BME280;31738;50.188;8.524;2023-01-27T16:06:15;99529.03;;;4.41;87.94